createdAt,value
2019-05-05T00:00:56.166Z,2.00
2019-05-05T00:03:44.558Z,2.10
2019-05-05T00:06:14.712Z,1.90
2019-05-05T00:08:45.685Z,2.08
2019-05-05T00:11:35.198Z,1.57
2019-05-05T00:14:06.091Z,1.75
2019-05-05T00:16:39.327Z,1.62
2019-05-05T00:19:08.399Z,1.62
2019-05-05T00:21:37.329Z,2.20
2019-05-05T00:24:06.257Z,1.92
2019-05-05T00:26:35.643Z,1.72
2019-05-05T00:29:04.632Z,2.02
2019-05-05T00:31:34.873Z,1.95
2019-05-05T00:34:05.050Z,1.87
2019-05-05T00:36:35.257Z,1.50
2019-05-05T00:39:07.241Z,3.60
2019-05-05T00:41:36.262Z,2.47
2019-05-05T00:44:05.570Z,1.92
2019-05-05T00:46:47.977Z,4.33
2019-05-05T00:49:17.176Z,2.00
2019-05-05T00:51:46.059Z,2.40
2019-05-05T00:54:15.001Z,2.00
2019-05-05T00:56:45.055Z,1.95
2019-05-05T00:59:21.857Z,2.33
2019-05-05T01:02:08.773Z,3.45
2019-05-05T01:04:55.891Z,2.58
2019-05-05T01:07:25.081Z,3.08
2019-05-05T01:09:54.343Z,3.20
2019-05-05T01:12:24.335Z,2.70
2019-05-05T01:14:55.294Z,3.08
2019-05-05T01:17:25.292Z,2.55
2019-05-05T01:20:03.412Z,2.00
2019-05-05T01:22:25.200Z,2.58
2019-05-05T01:24:55.379Z,2.50
2019-05-05T01:27:25.744Z,2.95
2019-05-05T01:29:54.839Z,2.47
2019-05-05T01:32:35.152Z,2.70
2019-05-05T01:35:05.426Z,3.35
2019-05-05T01:37:36.165Z,2.75
2019-05-05T01:40:09.327Z,2.92
2019-05-05T01:42:38.225Z,3.42
2019-05-05T01:45:07.411Z,2.80
2019-05-05T01:47:36.641Z,2.37
2019-05-05T01:50:18.370Z,3.17
2019-05-05T01:52:39.340Z,2.87
2019-05-05T01:55:08.412Z,5.55
2019-05-05T01:57:37.536Z,3.52
2019-05-05T02:00:07.826Z,4.05
2019-05-05T02:02:36.945Z,2.72
2019-05-05T02:05:07.690Z,4.08
2019-05-05T02:07:36.889Z,4.00
2019-05-05T02:10:09.054Z,3.85
2019-05-05T02:12:38.256Z,4.65
2019-05-05T02:15:09.089Z,4.60
2019-05-05T02:17:38.160Z,4.55
2019-05-05T02:20:07.509Z,5.00
2019-05-05T02:22:36.483Z,5.70
2019-05-05T02:25:07.728Z,5.85
2019-05-05T02:27:36.826Z,4.75
2019-05-05T02:30:08.279Z,5.30
2019-05-05T02:32:50.588Z,5.08
2019-05-05T02:35:19.783Z,3.77
2019-05-05T02:37:48.878Z,4.03
2019-05-05T02:40:18.307Z,4.47
2019-05-05T02:42:48.610Z,5.47
2019-05-05T02:45:24.998Z,4.42
2019-05-05T02:48:05.946Z,5.58
2019-05-05T02:50:51.070Z,4.17
2019-05-05T02:53:08.175Z,4.05
2019-05-05T02:55:37.266Z,4.87
2019-05-05T02:58:06.374Z,4.08
2019-05-05T03:00:36.832Z,3.05
2019-05-05T03:03:07.517Z,4.87
2019-05-05T03:05:36.554Z,4.33
2019-05-05T03:08:05.857Z,4.25
2019-05-05T03:10:35.264Z,4.42
2019-05-05T03:13:05.154Z,4.97
2019-05-05T03:15:45.977Z,3.22
2019-05-05T03:18:15.277Z,3.92
2019-05-05T03:20:44.759Z,3.75
2019-05-05T03:23:14.392Z,3.15
2019-05-05T03:25:44.130Z,5.10
2019-05-05T03:28:13.755Z,4.05
2019-05-05T03:30:45.580Z,5.42
2019-05-05T03:33:16.232Z,4.22
2019-05-05T03:35:46.332Z,3.80
2019-05-05T03:38:16.207Z,4.97
2019-05-05T03:40:47.420Z,4.17
2019-05-05T03:43:34.242Z,3.00
2019-05-05T03:46:05.382Z,4.30
2019-05-05T03:48:34.753Z,4.28
2019-05-05T03:51:17.475Z,2.98
2019-05-05T03:53:34.618Z,3.58
2019-05-05T03:56:04.122Z,5.92
2019-05-05T03:58:34.445Z,3.85
2019-05-05T04:01:15.585Z,5.08
2019-05-05T04:03:44.466Z,3.22
2019-05-05T04:06:14.659Z,3.83
2019-05-05T04:08:44.481Z,5.55
2019-05-05T04:11:14.385Z,3.50
2019-05-05T04:13:44.075Z,3.30
2019-05-05T04:16:20.692Z,3.92
2019-05-05T04:18:51.150Z,4.67
2019-05-05T04:21:30.321Z,4.25
2019-05-05T04:23:50.618Z,4.33
2019-05-05T04:26:19.560Z,4.53
2019-05-05T04:28:48.507Z,4.92
2019-05-05T04:31:17.436Z,3.20
2019-05-05T04:33:45.132Z,4.90
2019-05-05T04:36:14.553Z,3.67
2019-05-05T04:38:44.088Z,4.50
2019-05-05T04:41:14.027Z,3.40
2019-05-05T04:43:44.181Z,4.15
2019-05-05T04:46:14.083Z,4.25
2019-05-05T04:48:47.717Z,2.90
2019-05-05T04:51:19.105Z,3.15
2019-05-05T04:54:06.442Z,4.28
2019-05-05T04:56:36.048Z,3.12
2019-05-05T04:59:05.252Z,3.05
2019-05-05T05:01:34.947Z,3.22
2019-05-05T05:04:13.747Z,4.12
2019-05-05T05:06:54.219Z,3.45
2019-05-05T05:09:23.805Z,4.15
2019-05-05T05:11:54.704Z,3.70
2019-05-05T05:14:24.717Z,3.87
2019-05-05T05:16:55.137Z,2.95
2019-05-05T05:19:24.440Z,3.02
2019-05-05T05:22:01.133Z,2.87
2019-05-05T05:24:24.171Z,3.85
2019-05-05T05:26:55.289Z,4.45
2019-05-05T05:29:23.924Z,2.87
2019-05-05T05:31:53.497Z,2.92
2019-05-05T05:34:23.892Z,2.80
2019-05-05T05:36:53.661Z,4.12
2019-05-05T05:39:27.297Z,2.10
2019-05-05T05:41:56.194Z,4.05
2019-05-05T05:44:44.461Z,4.45
2019-05-05T05:47:15.161Z,3.17
2019-05-05T05:50:04.024Z,4.40
2019-05-05T05:52:34.392Z,3.62
2019-05-05T05:55:04.161Z,3.20
2019-05-05T05:57:34.550Z,2.50
2019-05-05T06:00:05.317Z,4.05
2019-05-05T06:02:34.383Z,3.00
2019-05-05T06:05:04.353Z,3.08
2019-05-05T06:07:33.665Z,3.05
2019-05-05T06:10:03.704Z,3.55
2019-05-05T06:12:33.620Z,3.52
2019-05-05T06:15:03.844Z,2.70
2019-05-05T06:17:34.362Z,3.50
2019-05-05T06:20:04.282Z,4.92
2019-05-05T06:22:34.408Z,4.30
2019-05-05T06:25:06.534Z,4.17
2019-05-05T06:27:34.363Z,4.08
2019-05-05T06:30:04.501Z,4.05
2019-05-05T06:32:34.236Z,3.30
2019-05-05T06:35:03.748Z,2.60
2019-05-05T06:37:34.279Z,3.30
2019-05-05T06:40:05.665Z,3.15
2019-05-05T06:42:39.177Z,3.02
2019-05-05T06:45:14.413Z,3.33
2019-05-05T06:47:44.532Z,2.77
2019-05-05T06:50:14.060Z,4.17
2019-05-05T06:52:45.129Z,3.17
2019-05-05T06:55:14.164Z,3.00
2019-05-05T06:57:44.424Z,2.80
2019-05-05T07:00:14.035Z,3.40
2019-05-05T07:02:44.435Z,3.08
2019-05-05T07:05:14.324Z,3.27
2019-05-05T07:07:43.599Z,2.37
2019-05-05T07:10:14.029Z,3.67
2019-05-05T07:12:43.993Z,2.87
2019-05-05T07:15:14.535Z,2.33
2019-05-05T07:17:44.248Z,2.58
2019-05-05T07:20:13.690Z,2.15
2019-05-05T07:22:56.287Z,1.90
2019-05-05T07:25:13.818Z,2.47
2019-05-05T07:27:44.229Z,2.37
2019-05-05T07:30:13.974Z,2.45
2019-05-05T07:32:44.294Z,2.35
2019-05-05T07:35:24.724Z,3.02
2019-05-05T07:37:55.202Z,2.62
2019-05-05T07:40:24.181Z,2.10
2019-05-05T07:42:54.006Z,2.25
2019-05-05T07:45:25.661Z,2.37
2019-05-05T07:47:55.216Z,2.35
2019-05-05T07:50:31.199Z,2.20
2019-05-05T07:52:54.734Z,2.12
2019-05-05T07:55:23.815Z,2.00
2019-05-05T07:57:53.771Z,2.30
2019-05-05T08:00:24.098Z,2.40
2019-05-05T08:02:54.404Z,2.12
2019-05-05T08:05:24.617Z,2.33
2019-05-05T08:07:54.012Z,3.20
2019-05-05T08:10:24.119Z,2.60
2019-05-05T08:12:54.171Z,2.33
2019-05-05T08:15:24.493Z,1.60
2019-05-05T08:17:58.047Z,2.00
2019-05-05T08:20:28.567Z,2.12
2019-05-05T08:22:57.474Z,1.65
2019-05-05T08:25:37.418Z,2.00
2019-05-05T08:28:04.312Z,2.20
2019-05-05T08:30:34.882Z,1.82
2019-05-05T08:33:04.773Z,1.42
2019-05-05T08:35:34.419Z,1.82
2019-05-05T08:38:04.622Z,2.00
2019-05-05T08:40:34.589Z,2.00
2019-05-05T08:43:04.562Z,2.10
2019-05-05T08:45:34.968Z,2.33
2019-05-05T08:48:04.877Z,2.05
2019-05-05T08:50:34.878Z,2.00
2019-05-05T08:53:04.869Z,1.95
2019-05-05T08:55:34.798Z,1.60
2019-05-05T08:58:04.517Z,1.77
2019-05-05T09:00:34.063Z,1.47
2019-05-05T09:03:03.807Z,1.50
2019-05-05T09:05:34.299Z,1.85
2019-05-05T09:08:04.498Z,1.60
2019-05-05T09:10:34.320Z,1.57
2019-05-05T09:13:04.075Z,2.10
2019-05-05T09:15:33.723Z,2.50
2019-05-05T09:18:04.846Z,1.35
2019-05-05T09:20:34.797Z,1.65
2019-05-05T09:23:04.329Z,1.92
2019-05-05T09:25:53.861Z,1.57
2019-05-05T09:28:26.732Z,1.65
2019-05-05T09:30:55.665Z,1.77
2019-05-05T09:33:24.817Z,1.37
2019-05-05T09:35:54.244Z,2.05
2019-05-05T09:38:23.897Z,1.50
2019-05-05T09:40:54.412Z,1.52
2019-05-05T09:43:24.121Z,1.52
2019-05-05T09:45:54.547Z,1.47
2019-05-05T09:48:24.281Z,1.50
2019-05-05T09:50:54.030Z,1.70
2019-05-05T09:53:23.775Z,1.67
2019-05-05T09:55:54.718Z,1.87
2019-05-05T09:58:24.302Z,1.47
2019-05-05T10:00:54.727Z,1.40
2019-05-05T10:03:23.737Z,1.20
2019-05-05T10:05:54.067Z,1.60
2019-05-05T10:08:23.651Z,1.62
2019-05-05T10:10:54.738Z,1.40
2019-05-05T10:13:23.645Z,1.32
2019-05-05T10:15:54.784Z,1.52
2019-05-05T10:18:23.076Z,1.35
2019-05-05T10:20:53.996Z,1.32
2019-05-05T10:23:24.467Z,1.62
2019-05-05T10:25:53.966Z,1.82
2019-05-05T10:28:24.035Z,1.20
2019-05-05T10:30:57.560Z,1.37
2019-05-05T10:33:36.258Z,1.40
2019-05-05T10:36:10.800Z,1.37
2019-05-05T10:38:47.718Z,1.80
2019-05-05T10:41:20.779Z,1.87
2019-05-05T10:43:59.429Z,1.15
2019-05-05T10:46:37.592Z,1.20
2019-05-05T10:49:13.738Z,1.65
2019-05-05T10:51:49.142Z,1.35
2019-05-05T10:54:40.572Z,1.60
2019-05-05T10:57:06.148Z,1.60
2019-05-05T10:59:44.770Z,1.32
2019-05-05T11:02:15.615Z,1.20
2019-05-05T11:04:55.503Z,1.22
2019-05-05T11:07:35.335Z,1.30
2019-05-05T11:10:09.403Z,1.60
2019-05-05T11:12:47.477Z,1.42
2019-05-05T11:15:21.583Z,1.47
2019-05-05T11:17:50.356Z,1.10
2019-05-05T11:20:20.668Z,1.60
2019-05-05T11:22:50.046Z,1.20
2019-05-05T11:25:19.631Z,1.30
2019-05-05T11:27:48.865Z,1.10
2019-05-05T11:30:27.773Z,1.40
2019-05-05T11:33:04.013Z,1.20
2019-05-05T11:35:37.333Z,1.65
2019-05-05T11:38:07.192Z,1.62
2019-05-05T11:40:36.800Z,1.30
2019-05-05T11:43:17.172Z,1.25
2019-05-05T11:45:44.820Z,1.70
2019-05-05T11:48:14.804Z,1.42
2019-05-05T11:50:44.588Z,1.40
2019-05-05T11:53:14.553Z,1.30
2019-05-05T11:55:44.387Z,1.20
2019-05-05T11:58:14.331Z,1.15
2019-05-05T12:00:43.968Z,1.12
2019-05-05T12:03:14.326Z,1.20
2019-05-05T12:05:44.224Z,1.10
2019-05-05T12:08:14.616Z,0.98
2019-05-05T12:10:54.737Z,1.77
2019-05-05T12:13:23.990Z,1.02
2019-05-05T12:15:54.487Z,1.02
2019-05-05T12:18:23.798Z,1.05
2019-05-05T12:20:54.413Z,1.20
2019-05-05T12:23:23.559Z,1.22
2019-05-05T12:25:57.179Z,1.20
2019-05-05T12:28:26.466Z,1.30
2019-05-05T12:31:18.228Z,1.25
2019-05-05T12:33:47.112Z,1.40
2019-05-05T12:36:16.014Z,1.10
2019-05-05T12:38:44.971Z,1.57
2019-05-05T12:41:14.825Z,1.57
2019-05-05T12:43:44.259Z,1.40
2019-05-05T12:46:17.594Z,1.52
2019-05-05T12:48:50.807Z,1.47
2019-05-05T12:51:19.702Z,1.30
2019-05-05T12:53:48.656Z,1.90
2019-05-05T12:56:17.554Z,1.62
2019-05-05T12:58:46.561Z,1.32
2019-05-05T13:01:19.789Z,1.57
2019-05-05T13:03:55.914Z,1.07
2019-05-05T13:06:24.869Z,1.37
2019-05-05T13:08:53.750Z,1.10
2019-05-05T13:11:23.824Z,1.62
2019-05-05T13:13:54.518Z,1.30
2019-05-05T13:16:25.098Z,1.40
2019-05-05T13:18:54.102Z,1.27
2019-05-05T13:21:24.691Z,1.30
2019-05-05T13:23:58.210Z,1.30
2019-05-05T13:26:34.556Z,1.22
2019-05-05T13:29:03.442Z,1.50
2019-05-05T13:31:33.775Z,1.32
2019-05-05T13:34:04.392Z,1.22
2019-05-05T13:36:33.536Z,1.10
2019-05-05T13:39:02.522Z,1.32
2019-05-05T13:41:31.455Z,1.27
2019-05-05T13:44:01.929Z,1.50
2019-05-05T13:46:33.901Z,1.27
2019-05-05T13:49:20.750Z,1.30
2019-05-05T13:51:49.691Z,1.00
2019-05-05T13:54:18.591Z,1.70
2019-05-05T13:56:47.502Z,1.32
2019-05-05T13:59:16.524Z,1.10
2019-05-05T14:01:45.449Z,1.32
2019-05-05T14:04:14.660Z,1.32
2019-05-05T14:06:44.473Z,1.20
2019-05-05T14:09:14.205Z,1.30
2019-05-05T14:11:44.523Z,1.55
2019-05-05T14:14:13.912Z,1.47
2019-05-05T14:16:44.701Z,1.40
2019-05-05T14:19:14.609Z,1.35
2019-05-05T14:21:44.636Z,1.80
2019-05-05T14:24:27.461Z,1.50
2019-05-05T14:26:56.470Z,1.10
2019-05-05T14:29:36.006Z,1.30
2019-05-05T14:32:06.187Z,1.55
2019-05-05T14:34:36.662Z,1.15
2019-05-05T14:37:24.848Z,1.30
2019-05-05T14:39:54.529Z,1.00
2019-05-05T14:42:23.778Z,1.52
2019-05-05T14:44:54.509Z,1.30
2019-05-05T14:47:24.453Z,1.60
2019-05-05T14:49:54.124Z,1.10
2019-05-05T14:52:24.566Z,1.47
2019-05-05T14:54:54.312Z,1.10
2019-05-05T14:57:25.413Z,1.30
2019-05-05T14:59:54.348Z,1.30
2019-05-05T15:02:24.324Z,1.10
2019-05-05T15:04:55.279Z,1.10
2019-05-05T15:07:28.747Z,1.27
2019-05-05T15:10:01.607Z,1.92
2019-05-05T15:12:34.380Z,1.10
2019-05-05T15:15:06.993Z,0.98
2019-05-05T15:17:34.754Z,1.05
2019-05-05T15:20:04.824Z,1.20
2019-05-05T15:22:34.365Z,1.05
2019-05-05T15:25:04.188Z,0.88
2019-05-05T15:27:34.857Z,1.12
2019-05-05T15:30:06.373Z,1.35
2019-05-05T15:32:35.266Z,1.07
2019-05-05T15:35:05.635Z,1.02
2019-05-05T15:37:34.591Z,1.05
2019-05-05T15:40:04.088Z,1.02
2019-05-05T15:42:33.480Z,1.27
2019-05-05T15:45:04.066Z,1.25
2019-05-05T15:47:34.312Z,1.20
2019-05-05T15:50:05.660Z,1.07
2019-05-05T15:52:35.117Z,1.00
2019-05-05T15:55:06.489Z,1.07
2019-05-05T15:57:35.469Z,0.90
2019-05-05T16:00:06.346Z,1.12
2019-05-05T16:02:36.079Z,1.15
2019-05-05T16:05:07.162Z,0.70
2019-05-05T16:07:36.167Z,0.60
2019-05-05T16:10:07.316Z,0.88
2019-05-05T16:12:39.279Z,1.32
2019-05-05T16:15:26.950Z,0.78
2019-05-05T16:18:13.894Z,0.60
2019-05-05T16:21:03.603Z,0.70
2019-05-05T16:23:35.942Z,0.45
2019-05-05T16:26:05.227Z,0.70
2019-05-05T16:28:34.362Z,0.40
2019-05-05T16:31:05.278Z,0.68
2019-05-05T16:33:33.889Z,0.90
2019-05-05T16:36:06.119Z,0.80
2019-05-05T16:38:34.363Z,0.62
2019-05-05T16:41:03.375Z,1.00
2019-05-05T16:43:33.769Z,1.95
2019-05-05T16:46:04.242Z,0.70
2019-05-05T16:48:34.391Z,0.50
2019-05-05T16:51:05.182Z,0.65
2019-05-05T16:53:40.135Z,0.40
2019-05-05T16:58:40.254Z,0.90
2019-05-05T17:01:14.453Z,0.47
2019-05-05T17:03:45.669Z,0.55
2019-05-05T17:06:14.274Z,0.50
2019-05-05T17:08:44.447Z,0.55
2019-05-05T17:11:15.131Z,0.98
2019-05-05T17:13:45.840Z,0.88
2019-05-05T17:16:19.116Z,1.00
2019-05-05T17:19:01.652Z,0.95
2019-05-05T17:21:38.495Z,1.10
2019-05-05T17:24:07.815Z,0.95
2019-05-05T17:26:36.707Z,0.80
2019-05-05T17:29:05.726Z,0.90
2019-05-05T17:31:34.681Z,0.72
2019-05-05T17:34:04.194Z,0.85
2019-05-05T17:36:33.412Z,1.20
2019-05-05T17:39:02.326Z,1.27
2019-05-05T17:41:44.939Z,0.90
2019-05-05T17:44:37.825Z,1.10
2019-05-05T17:47:24.601Z,0.90
2019-05-05T17:49:58.896Z,0.95
2019-05-05T17:52:34.351Z,1.25
2019-05-05T17:55:04.833Z,2.20
2019-05-05T17:57:34.504Z,1.57
2019-05-05T18:00:04.801Z,1.42
2019-05-05T18:02:34.370Z,1.90
2019-05-05T18:05:04.561Z,0.80
2019-05-05T18:07:35.292Z,0.75
2019-05-05T18:10:06.430Z,1.25
2019-05-05T18:12:40.450Z,1.37
2019-05-05T18:15:11.025Z,0.90
2019-05-05T18:17:39.927Z,0.82
2019-05-05T18:20:09.191Z,0.70
2019-05-05T18:22:38.093Z,0.98
2019-05-05T18:25:07.131Z,0.93
2019-05-05T18:27:36.103Z,0.80
2019-05-05T18:30:07.404Z,1.15
2019-05-05T18:32:36.804Z,0.80
2019-05-05T18:35:06.899Z,0.90
2019-05-05T18:37:36.437Z,0.98
2019-05-05T18:40:07.074Z,0.90
2019-05-05T18:42:36.570Z,0.80
2019-05-05T18:45:09.251Z,0.93
2019-05-05T18:47:38.347Z,0.65
2019-05-05T18:50:07.916Z,0.72
2019-05-05T18:52:36.846Z,0.85
2019-05-05T18:55:07.192Z,1.07
2019-05-05T18:57:36.319Z,0.85
2019-05-05T19:00:27.475Z,0.82
2019-05-05T19:02:57.970Z,0.60
2019-05-05T19:05:31.720Z,0.60
2019-05-05T19:08:05.320Z,0.70
2019-05-05T19:10:34.418Z,0.80
2019-05-05T19:13:03.617Z,0.60
2019-05-05T19:15:34.422Z,0.50
2019-05-05T19:18:04.024Z,0.62
2019-05-05T19:20:45.036Z,0.60
2019-05-05T19:23:14.743Z,0.80
2019-05-05T19:25:44.942Z,1.57
2019-05-05T19:28:14.271Z,1.10
2019-05-05T19:30:44.070Z,1.07
2019-05-05T19:33:15.228Z,1.25
2019-05-05T19:35:47.130Z,1.40
2019-05-05T19:38:15.768Z,0.85
2019-05-05T19:40:45.106Z,1.75
2019-05-05T19:43:14.277Z,1.12
2019-05-05T19:45:44.832Z,1.20
2019-05-05T19:48:14.939Z,1.15
2019-05-05T19:50:45.751Z,1.45
2019-05-05T19:53:27.560Z,1.27
2019-05-05T19:55:56.962Z,0.82
2019-05-05T19:58:25.843Z,0.80
2019-05-05T20:00:56.485Z,0.80
2019-05-05T20:03:25.649Z,0.80
2019-05-05T20:05:55.091Z,0.90
2019-05-05T20:08:24.228Z,1.20
2019-05-05T20:10:54.184Z,1.07
2019-05-05T20:13:23.708Z,1.72
2019-05-05T20:16:00.075Z,0.98
2019-05-05T20:18:29.073Z,1.32
2019-05-05T20:21:04.051Z,0.80
2019-05-05T20:23:28.799Z,0.88
2019-05-05T20:25:57.794Z,0.80
2019-05-05T20:28:26.890Z,0.82
2019-05-05T20:30:55.985Z,0.75
2019-05-05T20:33:36.152Z,2.67
2019-05-05T20:36:14.474Z,1.10
2019-05-05T20:38:44.985Z,2.20
2019-05-05T20:41:15.721Z,1.10
2019-05-05T20:43:45.038Z,1.42
2019-05-05T20:46:14.219Z,1.55
2019-05-05T20:48:44.857Z,1.32
2019-05-05T20:51:14.005Z,1.72
2019-05-05T20:53:45.157Z,1.67
2019-05-05T20:56:14.909Z,1.25
2019-05-05T20:58:44.159Z,1.40
2019-05-05T21:01:14.042Z,1.50
2019-05-05T21:03:43.226Z,1.62
2019-05-05T21:06:13.858Z,0.93
2019-05-05T21:08:44.037Z,1.90
2019-05-05T21:11:14.166Z,1.55
2019-05-05T21:13:45.168Z,1.95
2019-05-05T21:16:14.233Z,2.22
2019-05-05T21:18:43.532Z,1.82
2019-05-05T21:21:14.063Z,2.58
2019-05-05T21:23:44.594Z,2.10
2019-05-05T21:26:31.508Z,2.62
2019-05-05T21:29:00.604Z,2.30
2019-05-05T21:31:29.599Z,1.35
2019-05-05T21:33:58.723Z,3.33
2019-05-05T21:36:27.584Z,1.75
2019-05-05T21:38:56.491Z,1.47
2019-05-05T21:41:25.391Z,1.30
2019-05-05T21:43:54.305Z,1.50
2019-05-05T21:46:24.008Z,1.27
2019-05-05T21:48:54.392Z,1.05
2019-05-05T21:51:25.080Z,1.37
2019-05-05T21:54:14.460Z,1.75
2019-05-05T21:56:47.688Z,1.90
2019-05-05T21:59:16.580Z,1.37
2019-05-05T22:01:49.998Z,2.08
2019-05-05T22:04:19.076Z,1.20
2019-05-05T22:06:47.950Z,1.10
2019-05-05T22:09:16.885Z,1.55
2019-05-05T22:11:45.891Z,1.70
2019-05-05T22:14:14.892Z,2.12
2019-05-05T22:16:44.588Z,2.37
2019-05-05T22:19:14.595Z,2.10
2019-05-05T22:21:50.363Z,1.57
2019-05-05T22:24:20.459Z,2.02
2019-05-05T22:26:49.762Z,1.30
2019-05-05T22:29:18.755Z,1.20
2019-05-05T22:31:47.957Z,1.15
2019-05-05T22:34:17.148Z,1.95
2019-05-05T22:36:46.148Z,1.70
2019-05-05T22:39:17.019Z,1.25
2019-05-05T22:41:45.696Z,1.45
2019-05-05T22:44:14.729Z,1.42
2019-05-05T22:46:43.672Z,1.35
2019-05-05T22:49:14.598Z,1.95
2019-05-05T22:51:44.776Z,1.90
2019-05-05T22:54:14.927Z,1.10
2019-05-05T22:56:44.991Z,1.42
2019-05-05T22:59:14.315Z,2.37
2019-05-05T23:01:43.564Z,1.10
2019-05-05T23:04:23.975Z,2.15
2019-05-05T23:06:55.066Z,1.42
2019-05-05T23:09:24.153Z,1.82
2019-05-05T23:11:54.588Z,1.70
2019-05-05T23:14:30.448Z,1.32
2019-05-05T23:17:06.096Z,1.37
2019-05-05T23:19:39.924Z,1.50
2019-05-05T23:22:10.537Z,1.72
2019-05-05T23:24:41.224Z,1.42
2019-05-05T23:27:14.535Z,1.75
2019-05-05T23:30:04.872Z,2.27
2019-05-05T23:32:34.176Z,1.80
2019-05-05T23:35:03.261Z,1.05
2019-05-05T23:37:34.219Z,2.00
2019-05-05T23:40:03.781Z,1.60
2019-05-05T23:42:33.679Z,1.60
2019-05-05T23:45:04.413Z,1.98
2019-05-05T23:47:34.482Z,1.77
2019-05-05T23:50:04.627Z,2.95
2019-05-05T23:52:34.965Z,1.90
2019-05-05T23:55:05.764Z,1.75
2019-05-05T23:57:34.645Z,1.95
